Time;durP1;ratioP1;P1;durP2;ratioP2;P2;SDS_P1;SDS_P2;PMS_P1;PMS_P2;Temp;Humidity;BMP_temperature;BMP_pressure;BME280_temperature;BME280_humidity;BME280_pressure;Samples;Min_cycle;Max_cycle;Signal;HPM_P1;HPM_P2
2022/01/13 00:01:04;;;;;;;52.63;28.05;;;;;;;1.58;63.93;101407.91;5227763;28;20151;-68
2022/01/13 00:03:54;;;;;;;59.33;27.58;;;;;;;1.49;63.99;101418.53;5216859;28;20131;-65
2022/01/13 00:06:44;;;;;;;55.90;27.75;;;;;;;1.90;62.88;101424.78;5234272;28;20643;-65
2022/01/13 00:09:35;;;;;;;54.13;28.35;;;;;;;1.22;65.12;101412.03;5219888;28;20134;-69
2022/01/13 00:12:30;;;;;;;53.88;28.42;;;;;;;1.39;64.65;101418.72;5201811;28;20488;-67
2022/01/13 00:18:40;;;;;;;58.70;28.20;;;;;;;1.51;64.39;101438.53;5240263;28;20533;-69
2022/01/13 00:21:36;;;;;;;47.83;26.25;;;;;;;1.58;64.58;101439.28;5212268;28;20056;-68
2022/01/13 00:24:27;;;;;;;54.25;27.77;;;;;;;1.43;64.99;101445.66;5217493;28;20533;-68
2022/01/13 00:27:18;;;;;;;53.15;27.25;;;;;;;1.48;64.70;101438.59;5212841;28;20057;-68
2022/01/13 00:30:15;;;;;;;54.85;27.77;;;;;;;1.47;64.58;101442.09;5220015;28;20056;-67
2022/01/13 00:33:05;;;;;;;51.17;27.50;;;;;;;1.35;65.30;101457.97;5204711;28;20039;-69
2022/01/13 00:35:58;;;;;;;53.15;27.48;;;;;;;1.59;64.88;101456.69;5218166;28;20064;-68
2022/01/13 00:38:48;;;;;;;53.95;27.25;;;;;;;1.44;65.54;101454.38;5222325;28;20075;-67
2022/01/13 00:41:39;;;;;;;59.13;28.30;;;;;;;1.28;66.62;101453.75;5207776;28;20047;-68
2022/01/13 00:44:35;;;;;;;50.65;27.33;;;;;;;1.61;65.43;101470.63;5220432;28;20072;-67
2022/01/13 00:47:27;;;;;;;52.78;27.33;;;;;;;1.63;65.16;101468.84;5207486;28;20044;-67
2022/01/13 00:50:18;;;;;;;54.95;27.05;;;;;;;1.13;65.69;101466.19;5209290;28;20072;-69
2022/01/13 00:53:08;;;;;;;57.67;28.33;;;;;;;1.41;66.15;101471.81;5203299;28;20056;-69
2022/01/13 00:55:58;;;;;;;57.88;27.00;;;;;;;1.35;65.95;101471.91;5215842;28;20068;-67
2022/01/13 00:58:49;;;;;;;60.60;29.45;;;;;;;1.38;66.20;101484.94;5220106;28;20045;-66
2022/01/13 01:01:50;;;;;;;56.15;27.02;;;;;;;1.53;66.06;101482.97;5213337;28;20048;-66
2022/01/13 01:04:41;;;;;;;57.47;28.35;;;;;;;1.52;66.51;101492.53;5220845;28;20045;-66
2022/01/13 01:07:31;;;;;;;55.53;28.50;;;;;;;1.65;65.12;101488.84;5201394;28;20103;-68
2022/01/13 01:10:23;;;;;;;56.80;28.15;;;;;;;1.55;65.43;101474.19;5214424;28;20525;-68
2022/01/13 01:13:17;;;;;;;56.03;27.73;;;;;;;1.35;65.90;101482.34;5205440;28;20422;-67
2022/01/13 01:16:10;;;;;;;53.40;28.40;;;;;;;1.56;66.00;101483.78;5209439;28;20082;-69
2022/01/13 01:19:05;;;;;;;53.58;27.20;;;;;;;1.62;65.23;101478.44;5216655;28;20460;-67
2022/01/13 01:22:33;;;;;;;53.15;27.38;;;;;;;1.56;65.39;101485.53;5212749;28;20118;-67
2022/01/13 01:28:02;;;;;;;55.05;28.27;;;;;;;1.74;65.06;101503.53;5215409;28;20425;-68
2022/01/13 01:30:54;;;;;;;52.75;27.70;;;;;;;1.96;64.70;101490.06;5219627;28;20056;-67
2022/01/13 01:33:57;;;;;;;56.83;28.77;;;;;;;1.90;64.56;101495.41;5219743;28;20123;-68
2022/01/13 01:36:47;;;;;;;62.35;29.65;;;;;;;1.82;65.79;101493.81;5215883;28;20064;-68
2022/01/13 01:39:37;;;;;;;63.35;29.55;;;;;;;1.86;65.90;101498.09;5205813;28;20045;-69
2022/01/13 01:42:28;;;;;;;61.60;29.80;;;;;;;1.88;64.87;101490.19;5199957;28;20052;-67
2022/01/13 01:45:19;;;;;;;60.60;29.20;;;;;;;1.79;64.99;101477.31;5217820;28;20048;-67
2022/01/13 01:48:10;;;;;;;55.78;28.77;;;;;;;1.98;64.64;101491.75;5213050;28;20109;-69
2022/01/13 01:51:02;;;;;;;53.63;28.77;;;;;;;1.88;64.88;101484.97;5199281;28;20621;-69
2022/01/13 01:53:52;;;;;;;62.47;28.75;;;;;;;1.93;64.84;101503.22;5198432;28;20092;-68
2022/01/13 01:56:43;;;;;;;55.85;28.10;;;;;;;1.77;65.18;101474.69;5209723;28;20055;-67
2022/01/13 01:59:37;;;;;;;55.78;29.15;;;;;;;2.02;64.61;101479.47;5219601;28;20064;-68
2022/01/13 02:02:29;;;;;;;60.55;30.00;;;;;;;1.97;64.22;101473.47;5219013;28;20056;-68
2022/01/13 02:05:19;;;;;;;59.58;29.52;;;;;;;1.76;64.59;101474.75;5219334;28;20442;-66
2022/01/13 02:08:09;;;;;;;58.33;29.88;;;;;;;1.44;65.55;101465.69;5215726;28;20182;-69
2022/01/13 02:10:59;;;;;;;62.22;30.77;;;;;;;1.28;66.25;101441.53;5206149;28;20052;-67
2022/01/13 02:13:53;;;;;;;64.85;29.50;;;;;;;1.30;66.01;101465.91;5202922;28;20068;-66
2022/01/13 02:16:49;;;;;;;61.85;30.27;;;;;;;0.86;67.37;101469.16;5209676;28;20051;-66
2022/01/13 02:19:44;;;;;;;60.70;29.92;;;;;;;1.13;67.18;101463.56;5213226;28;20190;-66
2022/01/13 02:22:35;;;;;;;64.80;31.08;;;;;;;0.88;67.30;101463.03;5209691;28;20056;-66
2022/01/13 02:25:25;;;;;;;65.32;30.40;;;;;;;1.16;66.14;101462.66;5216292;28;20049;-66
2022/01/13 02:28:15;;;;;;;62.38;29.73;;;;;;;0.60;68.55;101459.09;5212015;28;20067;-66
2022/01/13 02:31:05;;;;;;;60.97;30.52;;;;;;;0.58;68.63;101453.88;5219272;28;20048;-66
2022/01/13 02:33:56;;;;;;;65.10;31.00;;;;;;;0.73;68.32;101441.50;5205326;28;20428;-66
2022/01/13 02:36:49;;;;;;;64.85;32.10;;;;;;;0.85;67.47;101449.16;5217746;28;20117;-66
2022/01/13 02:39:41;;;;;;;70.28;31.00;;;;;;;0.62;67.98;101454.72;5217468;28;20110;-66
2022/01/13 02:42:33;;;;;;;67.20;32.15;;;;;;;0.57;68.04;101443.47;5204226;28;20071;-66
2022/01/13 02:45:31;;;;;;;74.35;32.75;;;;;;;0.72;68.19;101443.25;5207344;28;20051;-66
2022/01/13 02:51:14;;;;;;;70.70;33.47;;;;;;;0.46;67.91;101444.50;5198190;28;20103;-66
2022/01/13 02:54:04;;;;;;;71.50;32.90;;;;;;;0.27;68.11;101405.59;5211155;28;20048;-66
2022/01/13 02:56:54;;;;;;;75.25;32.30;;;;;;;0.37;69.21;101433.31;5217459;28;20131;-66
2022/01/13 02:59:44;;;;;;;66.25;32.10;;;;;;;0.85;67.29;101430.88;5210825;28;20064;-66
2022/01/13 03:02:35;;;;;;;77.82;34.13;;;;;;;0.72;66.71;101421.50;5215554;28;20052;-66
2022/01/13 03:05:26;;;;;;;69.88;32.38;;;;;;;0.60;67.89;101435.59;5217869;28;20048;-66
2022/01/13 03:08:16;;;;;;;64.25;31.73;;;;;;;0.45;67.63;101432.31;5215867;28;20044;-66
2022/01/13 03:11:06;;;;;;;65.95;31.88;;;;;;;0.69;67.59;101432.84;5199418;28;20463;-66
2022/01/13 03:13:56;;;;;;;66.47;32.30;;;;;;;0.56;67.89;101431.28;5214067;28;20049;-66
2022/01/13 03:16:46;;;;;;;59.80;29.73;;;;;;;0.29;67.64;101433.38;5212228;28;20218;-66
2022/01/13 03:19:36;;;;;;;58.63;30.48;;;;;;;0.23;67.33;101426.50;5202284;28;20117;-66
2022/01/13 03:22:26;;;;;;;71.97;32.10;;;;;;;0.19;68.04;101419.56;5215282;28;20045;-66
2022/01/13 03:25:21;;;;;;;70.65;31.48;;;;;;;0.25;67.48;101428.22;5197773;28;20114;-66
2022/01/13 03:28:17;;;;;;;66.40;29.95;;;;;;;0.05;68.30;101424.09;5218898;28;20041;-66
2022/01/13 03:31:08;;;;;;;69.07;32.10;;;;;;;-0.01;67.99;101417.22;5216097;28;20061;-65
2022/01/13 03:33:58;;;;;;;66.97;30.17;;;;;;;0.07;68.42;101429.31;5214690;28;20071;-68
2022/01/13 03:36:49;;;;;;;62.53;29.98;;;;;;;0.04;68.65;101422.38;5219071;28;20692;-68
2022/01/13 03:39:39;;;;;;;59.85;29.67;;;;;;;-0.09;68.73;101415.59;5215509;28;20127;-68
2022/01/13 03:42:29;;;;;;;61.92;29.05;;;;;;;-0.16;68.06;101420.00;5203031;28;20033;-66
2022/01/13 03:45:21;;;;;;;63.25;30.67;;;;;;;-0.11;68.57;101430.38;5223243;28;20568;-66
2022/01/13 03:48:13;;;;;;;62.42;29.88;;;;;;;-0.20;67.72;101413.06;5205459;28;20474;-66
2022/01/13 03:51:03;;;;;;;64.05;30.33;;;;;;;-0.21;68.55;101421.78;5203932;28;20094;-68
2022/01/13 03:54:24;;;;;;;63.80;32.20;;;;;;;-0.21;68.74;101421.78;5218431;22;20048;-66
2022/01/13 03:57:27;;;;;;;63.78;30.88;;;;;;;-0.31;68.08;101421.00;5196978;28;20053;-66
2022/01/13 04:00:45;;;;;;;65.00;30.90;;;;;;;-0.47;68.86;101422.91;5182387;28;20053;-66
2022/01/13 04:03:36;;;;;;;66.90;30.27;;;;;;;-0.28;68.53;101427.94;5193540;28;20049;-67
2022/01/13 04:06:37;;;;;;;66.45;30.48;;;;;;;-0.26;67.97;101419.22;5200126;28;20041;-67
2022/01/13 04:09:33;;;;;;;64.05;31.38;;;;;;;-0.17;69.03;101433.03;5178844;28;20045;-67
2022/01/13 04:12:26;;;;;;;66.15;32.00;;;;;;;-0.25;69.49;101428.78;5180080;28;20140;-66
2022/01/13 04:15:25;;;;;;;65.03;32.05;;;;;;;-0.34;69.44;101421.03;5190597;28;20548;-67
2022/01/13 04:18:15;;;;;;;74.35;34.28;;;;;;;-0.34;69.22;101423.66;5193516;28;20057;-66
2022/01/13 04:21:06;;;;;;;67.55;30.65;;;;;;;-0.43;69.21;101417.66;5189708;28;20455;-66
2022/01/13 04:23:57;;;;;;;66.75;31.35;;;;;;;-0.33;68.78;101422.78;5182170;28;20589;-66
2022/01/13 04:26:47;;;;;;;67.95;31.63;;;;;;;-0.34;68.58;101421.03;5195747;28;20049;-67
2022/01/13 04:29:41;;;;;;;64.88;30.38;;;;;;;-0.44;68.77;101431.56;5195858;28;20158;-66
2022/01/13 04:32:31;;;;;;;70.45;31.02;;;;;;;-0.37;68.97;101417.59;5181037;28;20526;-67
2022/01/13 04:35:21;;;;;;;68.20;32.70;;;;;;;-0.17;67.10;101430.44;5185015;28;20057;-67
2022/01/13 04:38:11;;;;;;;69.10;31.63;;;;;;;-0.46;68.49;101429.00;5182082;28;20065;-66
2022/01/13 04:41:04;;;;;;;65.38;31.52;;;;;;;-0.56;68.07;101424.75;5179818;28;20203;-66
2022/01/13 04:43:54;;;;;;;66.65;28.42;;;;;;;-0.66;68.26;101421.38;5178827;28;20100;-66
2022/01/13 04:46:50;;;;;;;66.20;30.40;;;;;;;-0.63;68.90;101436.97;5172549;28;20053;-66
2022/01/13 04:49:40;;;;;;;72.38;33.25;;;;;;;-0.67;69.11;101437.84;5182402;28;20038;-66
2022/01/13 04:52:30;;;;;;;71.03;32.17;;;;;;;-0.55;68.92;101442.09;5176066;28;20100;-66
2022/01/13 04:55:25;;;;;;;70.00;33.08;;;;;;;-0.69;69.68;101444.84;5184621;28;20057;-66
2022/01/13 04:58:16;;;;;;;71.07;33.22;;;;;;;-0.54;69.14;101444.69;5191442;28;20590;-66
2022/01/13 05:01:06;;;;;;;71.43;31.77;;;;;;;-0.75;69.33;101422.28;5181235;28;20433;-66
2022/01/13 05:03:57;;;;;;;77.60;33.10;;;;;;;-0.59;69.55;101451.69;5167381;28;20049;-67
2022/01/13 05:06:47;;;;;;;71.60;32.33;;;;;;;-0.68;68.49;101453.50;5175250;28;20058;-67
2022/01/13 05:09:37;;;;;;;69.20;31.83;;;;;;;-0.82;69.28;101446.66;5184991;28;20428;-67
2022/01/13 05:12:36;;;;;;;78.45;32.92;;;;;;;-0.61;68.61;101447.38;5202619;28;20131;-68
2022/01/13 05:15:27;;;;;;;68.60;32.28;;;;;;;-0.53;68.37;101449.03;5183939;28;20045;-68
2022/01/13 05:18:45;;;;;;;76.32;34.60;;;;;;;-0.61;68.97;101437.81;5181701;28;20445;-68
2022/01/13 05:21:56;;;;;;;77.63;32.60;;;;;;;-0.79;69.22;101428.41;5178193;28;20056;-67
2022/01/13 05:24:46;;;;;;;72.53;32.72;;;;;;;-0.78;69.15;101416.25;5199970;28;20143;-68
2022/01/13 05:27:36;;;;;;;73.65;33.20;;;;;;;-0.82;68.94;101432.78;5178999;28;20056;-68
2022/01/13 05:30:26;;;;;;;70.97;31.38;;;;;;;-0.86;68.25;101444.97;5190711;28;20053;-69
2022/01/13 05:33:16;;;;;;;72.53;32.45;;;;;;;-1.03;68.31;101420.78;5189983;28;20131;-69
2022/01/13 05:36:07;;;;;;;77.78;33.30;;;;;;;-0.97;69.66;101454.59;5197939;28;20045;-69
2022/01/13 05:38:57;;;;;;;148.07;68.97;;;;;;;-0.69;69.36;101462.22;5179275;28;20042;-68
2022/01/13 05:41:46;;;;;;;94.78;43.00;;;;;;;-0.50;68.56;101461.16;5178256;28;20053;-69
2022/01/13 05:44:39;;;;;;;86.05;37.72;;;;;;;-0.68;68.70;101475.22;5180072;28;20076;-69
2022/01/13 05:47:30;;;;;;;62.30;27.60;;;;;;;-0.66;69.54;101467.38;5175425;28;20093;-70
2022/01/13 05:50:20;;;;;;;76.00;35.03;;;;;;;-0.72;68.96;101455.28;5178505;28;20411;-69
2022/01/13 05:53:10;;;;;;;80.13;34.97;;;;;;;-0.75;69.13;101468.34;5176730;28;20439;-69
2022/01/13 05:56:00;;;;;;;75.47;33.05;;;;;;;-0.71;68.87;101468.28;5190770;28;20203;-67
2022/01/13 05:58:54;;;;;;;78.82;32.80;;;;;;;-0.77;68.67;101459.66;5174375;28;20045;-69
2022/01/13 06:01:44;;;;;;;73.15;32.95;;;;;;;-0.67;69.82;101463.91;5169355;28;20065;-67
2022/01/13 06:04:38;;;;;;;77.88;35.22;;;;;;;-0.64;69.43;101448.25;5173320;28;20065;-67
2022/01/13 06:07:28;;;;;;;71.90;34.92;;;;;;;-0.76;70.10;101451.84;5174373;28;20147;-67
2022/01/13 06:10:19;;;;;;;77.57;34.15;;;;;;;-0.64;69.79;101466.50;5175968;28;20176;-67
2022/01/13 06:13:09;;;;;;;76.45;34.08;;;;;;;-0.65;69.36;101462.16;5177501;28;20057;-67
2022/01/13 06:15:59;;;;;;;77.10;34.30;;;;;;;-0.92;68.96;101423.31;5192122;28;20462;-67
2022/01/13 06:18:49;;;;;;;79.13;33.83;;;;;;;-0.81;68.85;101445.78;5193474;28;20103;-67
2022/01/13 06:21:39;;;;;;;65.60;31.55;;;;;;;-0.71;68.98;101457.84;5184717;28;20048;-67
2022/01/13 06:24:29;;;;;;;72.50;32.30;;;;;;;-0.68;68.53;101456.97;5174995;28;20614;-67
2022/01/13 06:27:21;;;;;;;69.43;33.05;;;;;;;-0.65;68.96;101454.34;5164437;28;20508;-67
2022/01/13 06:30:15;;;;;;;69.25;31.95;;;;;;;-0.60;68.33;101449.09;5182367;28;20061;-67
2022/01/13 06:33:06;;;;;;;78.30;34.83;;;;;;;-0.60;69.42;101452.56;5202600;28;20415;-67
2022/01/13 06:35:56;;;;;;;76.93;35.03;;;;;;;-0.41;69.96;101453.25;5200692;28;20412;-67
2022/01/13 06:38:48;;;;;;;73.28;34.88;;;;;;;-0.20;69.40;101456.53;5165143;28;20507;-68
2022/01/13 06:41:40;;;;;;;79.25;36.00;;;;;;;-0.24;69.32;101472.22;5175418;28;20053;-68
2022/01/13 06:44:31;;;;;;;78.03;37.38;;;;;;;-0.09;69.03;101473.81;5179411;28;20046;-66
2022/01/13 06:47:21;;;;;;;85.05;37.03;;;;;;;-0.07;69.43;101469.44;5198351;28;20573;-68
2022/01/13 06:50:12;;;;;;;85.38;39.00;;;;;;;0.04;68.89;101471.09;5170483;28;20554;-66
2022/01/13 06:53:02;;;;;;;84.20;39.03;;;;;;;-0.13;70.65;101469.53;5180223;28;20050;-68
2022/01/13 06:55:52;;;;;;;80.30;37.08;;;;;;;0.12;69.26;101477.06;5171917;28;20514;-65
2022/01/13 06:58:45;;;;;;;76.50;36.40;;;;;;;0.08;69.23;101481.47;5190832;28;20132;-68
2022/01/13 07:01:36;;;;;;;73.73;36.07;;;;;;;0.20;69.31;101490.91;5184829;28;20096;-68
2022/01/13 07:04:28;;;;;;;80.07;36.53;;;;;;;0.11;69.99;101488.41;5188933;28;20275;-68
2022/01/13 07:07:18;;;;;;;89.97;36.85;;;;;;;0.26;68.31;101500.41;5174951;28;20061;-68
2022/01/13 07:10:11;;;;;;;80.88;36.25;;;;;;;0.15;69.04;101503.13;5182510;28;20068;-66
2022/01/13 07:13:01;;;;;;;87.35;38.75;;;;;;;0.26;69.01;101506.47;5201892;28;20179;-66
2022/01/13 07:15:51;;;;;;;79.20;37.92;;;;;;;0.37;68.68;101515.06;5185725;28;20084;-66
2022/01/13 07:18:41;;;;;;;87.43;38.92;;;;;;;0.47;69.17;101516.69;5177252;28;20050;-66
2022/01/13 07:21:43;;;;;;;87.40;38.55;;;;;;;0.53;69.22;101522.69;5206267;28;20052;-68
2022/01/13 07:24:33;;;;;;;90.90;39.53;;;;;;;0.60;69.17;101520.00;5169779;28;20139;-68
2022/01/13 07:27:24;;;;;;;87.35;37.17;;;;;;;0.61;68.52;101523.47;5186914;28;20067;-68
2022/01/13 07:30:13;;;;;;;79.35;36.95;;;;;;;0.55;68.48;101520.94;5197068;28;20049;-68
2022/01/13 07:33:03;;;;;;;81.55;37.50;;;;;;;0.61;68.72;101516.50;5185727;28;20152;-68
2022/01/13 07:35:54;;;;;;;78.68;36.85;;;;;;;0.64;68.98;101521.69;5171190;28;20042;-68
2022/01/13 07:38:44;;;;;;;83.03;37.15;;;;;;;0.72;68.91;101518.13;5198803;28;20143;-68
2022/01/13 07:41:37;;;;;;;70.63;33.80;;;;;;;0.60;69.68;101521.78;5202752;28;20064;-66
2022/01/13 07:44:27;;;;;;;75.85;35.15;;;;;;;0.76;69.07;101523.28;5180067;28;20574;-68
2022/01/13 07:47:17;;;;;;;86.22;37.00;;;;;;;0.87;69.09;101520.53;5182117;28;20042;-68
2022/01/13 07:50:09;;;;;;;75.72;34.75;;;;;;;0.91;68.59;101528.31;5197990;28;20212;-66
2022/01/13 07:52:59;;;;;;;78.30;36.67;;;;;;;0.98;68.54;101528.22;5202279;28;20046;-67
2022/01/13 07:55:49;;;;;;;78.50;36.75;;;;;;;1.13;67.84;101525.41;5192873;28;20056;-68
2022/01/13 07:58:40;;;;;;;76.47;36.38;;;;;;;1.19;67.33;101520.06;5187067;28;20421;-68
2022/01/13 08:01:30;;;;;;;72.40;35.55;;;;;;;1.09;67.88;101537.66;5191818;28;20056;-66
2022/01/13 08:04:21;;;;;;;88.28;38.55;;;;;;;1.23;67.89;101542.69;5171870;28;20566;-68
2022/01/13 08:07:11;;;;;;;78.90;36.22;;;;;;;0.86;69.06;101532.75;5179207;28;20054;-68
2022/01/13 08:10:02;;;;;;;78.38;37.92;;;;;;;1.11;67.98;101532.41;5186827;28;20044;-68
2022/01/13 08:12:52;;;;;;;85.68;38.78;;;;;;;1.22;68.56;101527.00;5195450;28;20068;-68
2022/01/13 08:15:43;;;;;;;83.57;38.67;;;;;;;1.16;68.57;101504.47;5200741;28;20041;-68
2022/01/13 08:21:43;;;;;;;82.00;38.75;;;;;;;1.26;68.65;101516.50;5174374;28;20061;-68
2022/01/13 08:24:32;;;;;;;84.50;39.58;;;;;;;1.32;68.08;101532.06;5183956;28;20064;-67
2022/01/13 08:27:23;;;;;;;83.43;38.78;;;;;;;1.30;68.27;101528.63;5203677;28;20131;-68
2022/01/13 08:30:14;;;;;;;73.45;35.13;;;;;;;1.24;68.65;101523.50;5195847;28;20101;-68
2022/01/13 08:33:04;;;;;;;86.15;40.25;;;;;;;1.31;68.57;101508.59;5194399;28;20044;-68
2022/01/13 08:35:54;;;;;;;77.78;36.53;;;;;;;1.43;68.34;101529.31;5171079;28;20176;-68
2022/01/13 08:38:44;;;;;;;74.80;37.35;;;;;;;1.76;67.81;101512.22;5202932;28;20218;-68
2022/01/13 08:41:34;;;;;;;77.05;36.50;;;;;;;2.33;64.65;101525.13;5188779;28;20044;-68
2022/01/13 08:44:24;;;;;;;77.13;37.83;;;;;;;2.25;65.80;101518.28;5179021;28;20057;-66
2022/01/13 08:47:14;;;;;;;65.75;34.45;;;;;;;2.04;64.68;101519.56;5202090;28;20060;-66
2022/01/13 08:50:07;;;;;;;74.60;35.17;;;;;;;2.22;64.77;101524.47;5168770;28;20436;-68
2022/01/13 08:52:57;;;;;;;77.32;35.72;;;;;;;2.27;63.77;101514.75;5193794;28;20061;-68
2022/01/13 08:55:48;;;;;;;74.28;35.70;;;;;;;2.22;65.03;101521.84;5202751;28;20503;-68
2022/01/13 08:58:38;;;;;;;74.68;34.03;;;;;;;2.40;63.85;101519.78;5184497;28;20097;-68
2022/01/13 09:01:30;;;;;;;71.22;32.15;;;;;;;2.39;63.21;101539.00;5198707;28;20523;-68
2022/01/13 09:04:20;;;;;;;68.38;33.22;;;;;;;2.79;62.03;101518.94;5183616;28;20057;-68
2022/01/13 09:07:10;;;;;;;65.35;33.42;;;;;;;2.70;62.39;101523.53;5203730;28;20423;-68
2022/01/13 09:10:21;;;;;;;60.00;30.80;;;;;;;2.68;63.10;101502.63;5177037;28;20034;-68
2022/01/13 09:13:15;;;;;;;70.80;33.60;;;;;;;2.83;61.95;101509.28;5195504;28;20454;-68
2022/01/13 09:16:14;;;;;;;64.03;33.47;;;;;;;3.06;61.29;101508.75;5201284;28;20052;-68
2022/01/13 09:19:11;;;;;;;66.75;33.88;;;;;;;3.03;60.92;101496.59;5192183;28;20049;-68
2022/01/13 09:22:02;;;;;;;66.15;33.13;;;;;;;2.93;62.03;101487.22;5184216;28;20089;-68
2022/01/13 09:24:52;;;;;;;60.75;31.52;;;;;;;3.28;60.51;101481.16;5195969;28;20096;-68
2022/01/13 09:27:42;;;;;;;64.03;31.55;;;;;;;3.05;62.22;101496.56;5183434;28;20538;-68
2022/01/13 09:30:34;;;;;;;55.72;30.02;;;;;;;3.39;59.99;101498.41;5178452;28;20052;-68
2022/01/13 09:33:25;;;;;;;60.55;30.75;;;;;;;2.88;61.71;101494.31;5194766;28;20127;-68
2022/01/13 09:36:15;;;;;;;58.53;30.30;;;;;;;3.14;61.12;101483.22;5198481;28;20052;-68
2022/01/13 09:39:11;;;;;;;58.50;31.13;;;;;;;3.05;62.68;101499.19;5183625;28;20419;-68
2022/01/13 09:42:03;;;;;;;62.97;30.67;;;;;;;3.71;59.46;101501.09;5198730;28;20115;-68
2022/01/13 09:44:57;;;;;;;56.33;28.75;;;;;;;3.37;60.30;101503.66;5202224;28;20052;-68
2022/01/13 09:47:48;;;;;;;58.40;27.27;;;;;;;3.52;60.73;101510.31;5190200;28;20076;-68
2022/01/13 09:50:39;;;;;;;56.80;28.13;;;;;;;3.45;61.68;101508.75;5199059;28;20053;-67
2022/01/13 09:53:30;;;;;;;54.75;27.02;;;;;;;3.39;61.25;101490.53;5189772;28;20522;-68
2022/01/13 09:56:20;;;;;;;46.83;24.75;;;;;;;3.00;62.86;101508.91;5184085;28;20086;-68
2022/01/13 09:59:10;;;;;;;46.72;24.45;;;;;;;3.13;62.74;101499.84;5191050;28;20060;-68
2022/01/13 10:02:00;;;;;;;48.45;24.30;;;;;;;3.56;62.16;101508.47;5188790;28;20470;-68
2022/01/13 10:04:55;;;;;;;44.50;24.77;;;;;;;3.59;62.32;101496.16;5185950;28;20183;-68
2022/01/13 10:07:49;;;;;;;37.25;19.52;;;;;;;3.51;62.32;101488.47;5182782;28;20060;-68
2022/01/13 10:10:46;;;;;;;38.25;19.08;;;;;;;3.50;62.67;101491.97;5183713;28;20052;-68
2022/01/13 10:13:50;;;;;;;45.20;21.33;;;;;;;3.83;62.26;101489.41;5187921;28;20056;-68
2022/01/13 10:16:54;;;;;;;33.20;17.15;;;;;;;3.87;61.59;101462.16;5193481;28;20052;-68
2022/01/13 10:19:46;;;;;;;31.90;12.95;;;;;;;4.30;60.83;101489.88;5181852;28;20110;-68
2022/01/13 10:22:37;;;;;;;21.80;12.87;;;;;;;3.95;62.67;101491.72;5188689;28;20058;-68
2022/01/13 10:25:33;;;;;;;25.17;12.88;;;;;;;3.46;62.90;101468.50;5173510;28;20060;-66
2022/01/13 10:28:23;;;;;;;27.88;13.07;;;;;;;3.06;64.78;101495.66;5197742;28;20087;-68
2022/01/13 10:31:13;;;;;;;26.17;13.40;;;;;;;3.36;64.49;101498.47;5190272;28;20068;-68
2022/01/13 10:34:16;;;;;;;28.83;13.70;;;;;;;2.90;65.47;101481.19;5171755;28;20057;-68
2022/01/13 10:37:11;;;;;;;24.88;13.30;;;;;;;3.80;64.66;101489.47;5198763;28;20080;-68
2022/01/13 10:40:07;;;;;;;26.40;14.23;;;;;;;3.83;62.42;101493.78;5194573;28;20144;-66
2022/01/13 10:45:56;;;;;;;28.33;14.93;;;;;;;3.85;63.40;101497.25;5168234;28;20046;-68
2022/01/13 10:49:07;;;;;;;27.50;14.63;;;;;;;4.21;61.79;101491.00;5199615;28;20041;-68
2022/01/13 10:52:26;;;;;;;26.85;14.63;;;;;;;4.20;61.36;101491.03;5167863;28;20053;-68
2022/01/13 10:55:20;;;;;;;30.98;15.60;;;;;;;4.21;62.17;101485.75;5198250;28;20072;-68
2022/01/13 10:58:36;;;;;;;27.75;15.88;;;;;;;4.21;62.65;101483.13;5191564;28;20559;-68
2022/01/13 11:01:34;;;;;;;26.30;14.68;;;;;;;4.21;62.80;101477.88;5184757;28;20123;-68
2022/01/13 11:04:31;;;;;;;25.95;14.77;;;;;;;4.19;62.78;101468.31;5186628;28;20418;-68
2022/01/13 11:07:24;;;;;;;30.65;15.65;;;;;;;4.02;63.76;101468.78;5168248;28;20104;-68
2022/01/13 11:10:14;;;;;;;25.98;13.55;;;;;;;3.98;63.34;101477.66;5194016;28;20057;-68
2022/01/13 11:13:07;;;;;;;27.10;13.93;;;;;;;3.72;65.56;101471.31;5185292;28;20134;-68
2022/01/13 11:15:58;;;;;;;31.88;15.30;;;;;;;4.27;62.40;101486.47;5201363;28;20120;-68
2022/01/13 11:18:48;;;;;;;23.98;13.63;;;;;;;4.25;62.97;101491.78;5185448;28;20139;-68
2022/01/13 11:21:38;;;;;;;27.08;14.50;;;;;;;3.97;63.75;101489.03;5179105;28;20046;-68
2022/01/13 11:24:28;;;;;;;20.45;12.75;;;;;;;4.20;63.74;101494.53;5182160;28;20053;-68
2022/01/13 11:27:19;;;;;;;25.05;14.20;;;;;;;4.27;63.21;101494.34;5175103;28;20588;-68
2022/01/13 11:30:13;;;;;;;23.25;13.68;;;;;;;4.27;63.06;101499.63;5190015;28;20538;-68
2022/01/13 11:33:04;;;;;;;26.25;13.68;;;;;;;4.38;63.16;101501.06;5197343;28;20041;-68
2022/01/13 11:35:57;;;;;;;21.95;11.88;;;;;;;4.54;62.30;101501.47;5188943;28;20042;-68
2022/01/13 11:38:57;;;;;;;23.98;13.93;;;;;;;4.26;62.68;101505.78;5193849;28;20057;-70
2022/01/13 11:42:05;;;;;;;27.38;12.57;;;;;;;3.27;65.32;101505.63;5197491;28;20045;-69
2022/01/13 11:45:14;;;;;;;22.30;13.05;;;;;;;4.13;64.22;101497.38;5180083;28;20044;-68
2022/01/13 11:48:34;;;;;;;24.95;12.85;;;;;;;4.18;63.07;101496.34;5187586;28;20044;-69
2022/01/13 11:51:25;;;;;;;20.90;11.68;;;;;;;4.23;62.84;101489.19;5194644;28;20183;-68
2022/01/13 11:54:27;;;;;;;23.98;12.95;;;;;;;4.49;61.85;101498.13;5177621;28;20189;-69
2022/01/13 11:57:37;;;;;;;24.60;12.90;;;;;;;4.51;61.86;101495.47;5173637;28;20179;-69
2022/01/13 12:00:31;;;;;;;20.63;12.52;;;;;;;4.58;62.45;101484.72;5181957;28;20515;-68
2022/01/13 12:03:29;;;;;;;24.00;13.43;;;;;;;4.19;63.17;101471.81;5198299;28;20052;-68
2022/01/13 12:06:38;;;;;;;27.73;14.05;;;;;;;4.43;62.34;101482.53;5154845;28;20460;-69
2022/01/13 12:09:31;;;;;;;23.27;13.75;;;;;;;4.47;62.70;101476.28;5189932;28;20038;-69
2022/01/13 12:12:30;;;;;;;24.45;13.68;;;;;;;4.79;62.36;101471.84;5188005;28;20049;-68
2022/01/13 12:15:21;;;;;;;24.65;13.20;;;;;;;4.56;62.63;101465.50;5193400;28;20060;-69
2022/01/13 12:18:11;;;;;;;26.02;13.45;;;;;;;5.08;61.32;101452.53;5176917;28;20096;-69
2022/01/13 12:21:20;;;;;;;26.20;14.10;;;;;;;5.02;61.19;101443.06;5194604;28;20439;-68
2022/01/13 12:24:18;;;;;;;24.98;14.63;;;;;;;5.09;61.83;101441.97;5164913;28;20616;-69
2022/01/13 12:27:08;;;;;;;29.27;14.50;;;;;;;5.15;61.68;101436.50;5182543;28;20061;-68
2022/01/13 12:30:04;;;;;;;24.33;14.27;;;;;;;5.25;60.85;101436.22;5203553;28;20448;-69
2022/01/13 12:32:59;;;;;;;25.02;14.20;;;;;;;5.18;61.03;101427.66;5202613;28;20688;-68
2022/01/13 12:35:50;;;;;;;23.10;13.75;;;;;;;5.43;60.13;101438.25;5176733;28;20042;-69
2022/01/13 12:38:57;;;;;;;24.80;14.07;;;;;;;5.22;61.77;101424.03;5191773;28;20045;-68
2022/01/13 12:41:57;;;;;;;21.60;12.48;;;;;;;5.39;59.40;101431.34;5189429;28;20136;-67
2022/01/13 12:48:09;;;;;;;25.00;13.55;;;;;;;5.17;60.85;101428.59;5181016;28;20725;-68
2022/01/13 12:51:00;;;;;;;24.27;13.48;;;;;;;5.19;60.69;101430.22;5202642;28;20857;-67
2022/01/13 12:53:50;;;;;;;24.40;13.38;;;;;;;5.51;59.43;101423.06;5184336;28;20061;-68
2022/01/13 12:56:41;;;;;;;23.83;13.55;;;;;;;5.61;59.25;101399.91;5199026;28;20045;-68
2022/01/13 12:59:32;;;;;;;23.38;13.32;;;;;;;5.41;59.90;101419.03;5200196;28;20056;-68
2022/01/13 13:02:22;;;;;;;27.95;13.00;;;;;;;5.47;60.31;101424.09;5185456;28;20049;-68
2022/01/13 13:05:36;;;;;;;23.85;13.52;;;;;;;5.52;59.22;101418.66;5197294;28;20045;-68
2022/01/13 13:08:29;;;;;;;24.65;13.57;;;;;;;5.27;59.67;101394.94;5201329;28;20056;-69
2022/01/13 13:11:20;;;;;;;24.45;12.63;;;;;;;5.33;60.72;101421.91;5191384;28;20067;-68
2022/01/13 13:14:21;;;;;;;22.83;13.10;;;;;;;5.31;60.41;101420.25;5193489;28;20795;-68
2022/01/13 13:17:11;;;;;;;23.80;12.90;;;;;;;5.28;60.30;101409.81;5172943;28;20136;-68
2022/01/13 13:20:04;;;;;;;24.90;13.13;;;;;;;5.33;60.78;101407.88;5196545;28;20052;-68
2022/01/13 13:22:58;;;;;;;25.90;12.97;;;;;;;5.63;59.77;101403.38;5200522;28;20045;-68
2022/01/13 13:25:55;;;;;;;25.00;13.77;;;;;;;5.90;59.15;101401.53;5200080;28;20277;-68
2022/01/13 13:28:47;;;;;;;27.45;14.63;;;;;;;5.79;59.22;101399.25;5198898;28;20056;-67
2022/01/13 13:31:40;;;;;;;28.42;14.85;;;;;;;5.45;61.00;101393.47;5177305;28;20052;-67